sensor_id;sensor_type;location;lat;lon;timestamp;pressure;altitude;pressure_sealevel;temperature;humidity
46303;BME280;32029;51.358;5.628;2023-09-19T00:00:25;100574.09;;;17.02;100.00
46303;BME280;32029;51.358;5.628;2023-09-19T00:02:57;100573.47;;;17.00;100.00
46303;BME280;32029;51.358;5.628;2023-09-19T00:05:27;100574.56;;;16.99;100.00
46303;BME280;32029;51.358;5.628;2023-09-19T00:07:56;100579.53;;;16.97;100.00
46303;BME280;32029;51.358;5.628;2023-09-19T00:10:28;100568.75;;;16.89;100.00
46303;BME280;32029;51.358;5.628;2023-09-19T00:12:58;100590.59;;;16.97;100.00
46303;BME280;32029;51.358;5.628;2023-09-19T00:15:36;100595.97;;;16.92;100.00
46303;BME280;32029;51.358;5.628;2023-09-19T00:18:04;100603.69;;;16.90;100.00
46303;BME280;32029;51.358;5.628;2023-09-19T00:20:36;100601.16;;;16.88;100.00
46303;BME280;32029;51.358;5.628;2023-09-19T00:23:02;100601.41;;;16.87;100.00
46303;BME280;32029;51.358;5.628;2023-09-19T00:25:32;100600.78;;;16.85;100.00
46303;BME280;32029;51.358;5.628;2023-09-19T00:27:59;100606.31;;;16.85;100.00
46303;BME280;32029;51.358;5.628;2023-09-19T00:30:25;100602.81;;;16.78;100.00
46303;BME280;32029;51.358;5.628;2023-09-19T00:32:52;100609.56;;;16.82;100.00
46303;BME280;32029;51.358;5.628;2023-09-19T00:35:19;100617.25;;;16.80;100.00
46303;BME280;32029;51.358;5.628;2023-09-19T00:37:46;100607.75;;;16.69;100.00
46303;BME280;32029;51.358;5.628;2023-09-19T00:40:12;100616.69;;;16.71;100.00
46303;BME280;32029;51.358;5.628;2023-09-19T00:42:39;100619.56;;;16.64;100.00
46303;BME280;32029;51.358;5.628;2023-09-19T00:45:08;100632.25;;;16.72;100.00
46303;BME280;32029;51.358;5.628;2023-09-19T00:47:48;100634.16;;;16.72;100.00
46303;BME280;32029;51.358;5.628;2023-09-19T00:50:17;100634.63;;;16.69;100.00
46303;BME280;32029;51.358;5.628;2023-09-19T00:52:50;100628.69;;;16.65;100.00
46303;BME280;32029;51.358;5.628;2023-09-19T00:55:19;100630.03;;;16.62;100.00
46303;BME280;32029;51.358;5.628;2023-09-19T00:57:46;100636.03;;;16.59;100.00
46303;BME280;32029;51.358;5.628;2023-09-19T01:00:13;100642.66;;;16.58;100.00
46303;BME280;32029;51.358;5.628;2023-09-19T01:02:43;100622.09;;;16.48;100.00
46303;BME280;32029;51.358;5.628;2023-09-19T01:05:10;100648.19;;;16.58;100.00
46303;BME280;32029;51.358;5.628;2023-09-19T01:07:37;100658.66;;;16.56;100.00
46303;BME280;32029;51.358;5.628;2023-09-19T01:10:09;100662.72;;;16.54;100.00
46303;BME280;32029;51.358;5.628;2023-09-19T01:20:39;100666.88;;;16.45;100.00
46303;BME280;32029;51.358;5.628;2023-09-19T01:23:53;100671.19;;;16.40;99.55
46303;BME280;32029;51.358;5.628;2023-09-19T01:26:56;100673.81;;;16.35;100.00
46303;BME280;32029;51.358;5.628;2023-09-19T01:29:39;100667.41;;;16.35;100.00
46303;BME280;32029;51.358;5.628;2023-09-19T01:32:11;100672.97;;;16.35;100.00
46303;BME280;32029;51.358;5.628;2023-09-19T01:34:56;100670.19;;;16.35;99.45
46303;BME280;32029;51.358;5.628;2023-09-19T01:37:30;100678.94;;;16.32;99.76
46303;BME280;32029;51.358;5.628;2023-09-19T01:40:00;100681.91;;;16.30;99.54
46303;BME280;32029;51.358;5.628;2023-09-19T01:42:59;100670.00;;;16.30;99.16
46303;BME280;32029;51.358;5.628;2023-09-19T01:45:53;100683.25;;;16.28;98.96
46303;BME280;32029;51.358;5.628;2023-09-19T01:48:43;100682.41;;;16.27;98.96
46303;BME280;32029;51.358;5.628;2023-09-19T01:51:19;100679.84;;;16.26;99.59
46303;BME280;32029;51.358;5.628;2023-09-19T01:54:03;100686.22;;;16.26;98.33
46303;BME280;32029;51.358;5.628;2023-09-19T01:56:42;100677.72;;;16.28;98.64
46303;BME280;32029;51.358;5.628;2023-09-19T01:59:13;100690.91;;;16.26;97.78
46303;BME280;32029;51.358;5.628;2023-09-19T02:01:44;100684.53;;;16.25;97.88
46303;BME280;32029;51.358;5.628;2023-09-19T02:04:12;100677.91;;;16.26;98.52
46303;BME280;32029;51.358;5.628;2023-09-19T02:06:42;100677.72;;;16.28;97.44
46303;BME280;32029;51.358;5.628;2023-09-19T02:09:08;100679.63;;;16.27;96.82
46303;BME280;32029;51.358;5.628;2023-09-19T02:11:35;100685.38;;;16.26;96.24
46303;BME280;32029;51.358;5.628;2023-09-19T02:14:03;100679.00;;;16.25;97.42
46303;BME280;32029;51.358;5.628;2023-09-19T02:16:30;100681.56;;;16.27;96.87
46303;BME280;32029;51.358;5.628;2023-09-19T02:18:57;100683.25;;;16.28;95.92
46303;BME280;32029;51.358;5.628;2023-09-19T02:21:24;100685.38;;;16.26;96.59
46303;BME280;32029;51.358;5.628;2023-09-19T02:23:51;100670.94;;;16.24;96.32
46303;BME280;32029;51.358;5.628;2023-09-19T02:26:18;100687.09;;;16.27;95.86
46303;BME280;32029;51.358;5.628;2023-09-19T02:28:45;100680.69;;;16.26;96.29
46303;BME280;32029;51.358;5.628;2023-09-19T02:31:12;100679.84;;;16.26;96.16
46303;BME280;32029;51.358;5.628;2023-09-19T02:33:39;100639.84;;;16.03;95.90
46303;BME280;32029;51.358;5.628;2023-09-19T02:36:05;100680.53;;;16.21;96.68
46303;BME280;32029;51.358;5.628;2023-09-19T02:38:32;100681.16;;;16.23;95.00
46303;BME280;32029;51.358;5.628;2023-09-19T02:40:59;100686.31;;;16.20;95.92
46303;BME280;32029;51.358;5.628;2023-09-19T02:43:25;100688.22;;;16.19;95.85
46303;BME280;32029;51.358;5.628;2023-09-19T02:45:52;100690.75;;;16.21;95.23
46303;BME280;32029;51.358;5.628;2023-09-19T02:48:23;100694.81;;;16.18;94.32
46303;BME280;32029;51.358;5.628;2023-09-19T02:50:51;100693.38;;;16.15;93.76
46303;BME280;32029;51.358;5.628;2023-09-19T02:53:18;100660.16;;;15.90;94.24
46303;BME280;32029;51.358;5.628;2023-09-19T02:55:46;100699.81;;;16.09;93.43
46303;BME280;32029;51.358;5.628;2023-09-19T02:58:13;100700.88;;;16.08;94.47
46303;BME280;32029;51.358;5.628;2023-09-19T03:00:41;100696.63;;;16.06;94.02
46303;BME280;32029;51.358;5.628;2023-09-19T03:03:14;100689.88;;;16.02;94.20
46303;BME280;32029;51.358;5.628;2023-09-19T03:05:42;100700.03;;;16.08;94.36
46303;BME280;32029;51.358;5.628;2023-09-19T03:08:14;100705.78;;;16.06;94.27
46303;BME280;32029;51.358;5.628;2023-09-19T03:10:46;100704.09;;;16.05;94.52
46303;BME280;32029;51.358;5.628;2023-09-19T03:13:13;100683.94;;;15.98;93.95
46303;BME280;32029;51.358;5.628;2023-09-19T03:15:43;100697.97;;;16.03;94.02
46303;BME280;32029;51.358;5.628;2023-09-19T03:18:16;100694.16;;;15.98;93.19
46303;BME280;32029;51.358;5.628;2023-09-19T03:20:43;100703.94;;;16.00;94.59
46303;BME280;32029;51.358;5.628;2023-09-19T03:23:10;100701.78;;;16.02;94.69
46303;BME280;32029;51.358;5.628;2023-09-19T03:25:39;100696.88;;;16.04;94.16
46303;BME280;32029;51.358;5.628;2023-09-19T03:28:06;100692.03;;;16.00;93.77
46303;BME280;32029;51.358;5.628;2023-09-19T03:30:33;100695.81;;;16.05;95.97
46303;BME280;32029;51.358;5.628;2023-09-19T03:33:00;100704.25;;;16.10;96.68
46303;BME280;32029;51.358;5.628;2023-09-19T03:35:27;100704.91;;;16.12;96.90
46303;BME280;32029;51.358;5.628;2023-09-19T03:37:54;100699.97;;;16.14;95.88
46303;BME280;32029;51.358;5.628;2023-09-19T03:40:20;100697.19;;;16.14;95.82
46303;BME280;32029;51.358;5.628;2023-09-19T03:42:48;100696.16;;;16.15;96.20
46303;BME280;32029;51.358;5.628;2023-09-19T03:45:14;100666.88;;;16.01;97.15
46303;BME280;32029;51.358;5.628;2023-09-19T03:47:42;100690.13;;;16.18;96.22
46303;BME280;32029;51.358;5.628;2023-09-19T03:50:09;100691.84;;;16.20;96.79
46303;BME280;32029;51.358;5.628;2023-09-19T03:52:37;100677.81;;;16.14;97.39
46303;BME280;32029;51.358;5.628;2023-09-19T03:55:04;100683.31;;;16.21;96.54
46303;BME280;32029;51.358;5.628;2023-09-19T03:57:31;100684.59;;;16.18;96.18
46303;BME280;32029;51.358;5.628;2023-09-19T03:59:58;100687.84;;;16.15;95.82
46303;BME280;32029;51.358;5.628;2023-09-19T04:02:24;100683.84;;;16.11;96.65
46303;BME280;32029;51.358;5.628;2023-09-19T04:04:51;100683.19;;;16.09;96.99
46303;BME280;32029;51.358;5.628;2023-09-19T04:07:18;100689.19;;;16.06;96.99
46303;BME280;32029;51.358;5.628;2023-09-19T04:09:46;100672.88;;;15.98;97.29
46303;BME280;32029;51.358;5.628;2023-09-19T04:12:12;100680.72;;;16.01;97.85
46303;BME280;32029;51.358;5.628;2023-09-19T04:14:39;100690.91;;;16.07;97.99
46303;BME280;32029;51.358;5.628;2023-09-19T04:17:06;100694.50;;;16.08;97.66
46303;BME280;32029;51.358;5.628;2023-09-19T04:19:33;100697.47;;;16.06;98.21
46303;BME280;32029;51.358;5.628;2023-09-19T04:22:00;100698.50;;;16.12;98.44
46303;BME280;32029;51.358;5.628;2023-09-19T04:24:27;100695.13;;;16.10;97.96
46303;BME280;32029;51.358;5.628;2023-09-19T04:26:53;100689.81;;;16.08;97.82
46303;BME280;32029;51.358;5.628;2023-09-19T04:29:20;100692.59;;;16.08;97.49
46303;BME280;32029;51.358;5.628;2023-09-19T04:31:47;100698.31;;;16.07;97.65
46303;BME280;32029;51.358;5.628;2023-09-19T04:34:13;100706.63;;;16.07;97.26
46303;BME280;32029;51.358;5.628;2023-09-19T04:36:42;100714.94;;;16.07;98.61
46303;BME280;32029;51.358;5.628;2023-09-19T04:39:09;100717.94;;;16.05;97.58
46303;BME280;32029;51.358;5.628;2023-09-19T04:41:38;100721.59;;;15.99;97.50
46303;BME280;32029;51.358;5.628;2023-09-19T04:44:07;100726.28;;;15.99;97.15
46303;BME280;32029;51.358;5.628;2023-09-19T04:46:34;100723.13;;;15.95;98.46
46303;BME280;32029;51.358;5.628;2023-09-19T04:49:01;100739.69;;;16.02;97.91
46303;BME280;32029;51.358;5.628;2023-09-19T04:51:29;100752.44;;;16.03;97.17
46303;BME280;32029;51.358;5.628;2023-09-19T04:54:00;100749.06;;;16.01;97.66
46303;BME280;32029;51.358;5.628;2023-09-19T04:56:27;100749.91;;;16.01;97.54
46303;BME280;32029;51.358;5.628;2023-09-19T04:58:55;100756.09;;;16.03;97.62
46303;BME280;32029;51.358;5.628;2023-09-19T05:01:24;100772.84;;;16.08;98.49
46303;BME280;32029;51.358;5.628;2023-09-19T05:03:50;100763.03;;;16.12;98.92
46303;BME280;32029;51.358;5.628;2023-09-19T05:06:19;100763.81;;;16.20;98.16
46303;BME280;32029;51.358;5.628;2023-09-19T05:08:49;100745.63;;;16.05;97.80
46303;BME280;32029;51.358;5.628;2023-09-19T05:11:18;100779.69;;;16.31;97.73
46303;BME280;32029;51.358;5.628;2023-09-19T05:13:46;100771.41;;;16.31;96.94
46303;BME280;32029;51.358;5.628;2023-09-19T05:16:13;100770.16;;;16.27;97.38
46303;BME280;32029;51.358;5.628;2023-09-19T05:18:39;100761.22;;;16.25;97.62
46303;BME280;32029;51.358;5.628;2023-09-19T05:21:06;100772.16;;;16.38;96.63
46303;BME280;32029;51.358;5.628;2023-09-19T05:23:34;100773.47;;;16.35;96.18
46303;BME280;32029;51.358;5.628;2023-09-19T05:26:00;100773.47;;;16.35;96.70
46303;BME280;32029;51.358;5.628;2023-09-19T05:28:28;100786.69;;;16.33;96.34
46303;BME280;32029;51.358;5.628;2023-09-19T05:30:56;100787.13;;;16.30;95.77
46303;BME280;32029;51.358;5.628;2023-09-19T05:33:22;100789.28;;;16.28;97.06
46303;BME280;32029;51.358;5.628;2023-09-19T05:35:49;100768.97;;;16.16;96.66
46303;BME280;32029;51.358;5.628;2023-09-19T05:38:16;100784.59;;;16.29;97.41
46303;BME280;32029;51.358;5.628;2023-09-19T05:40:45;100774.59;;;16.28;96.69
46303;BME280;32029;51.358;5.628;2023-09-19T05:43:13;100772.44;;;16.30;96.82
46303;BME280;32029;51.358;5.628;2023-09-19T05:45:43;100743.28;;;16.02;96.59
46303;BME280;32029;51.358;5.628;2023-09-19T05:48:13;100739.69;;;16.02;97.55
46303;BME280;32029;51.358;5.628;2023-09-19T05:50:40;100773.91;;;16.32;97.75
46303;BME280;32029;51.358;5.628;2023-09-19T05:53:07;100745.97;;;16.15;97.58
46303;BME280;32029;51.358;5.628;2023-09-19T05:55:34;100795.63;;;16.35;97.18
46303;BME280;32029;51.358;5.628;2023-09-19T05:58:01;100783.91;;;16.33;97.18
46303;BME280;32029;51.358;5.628;2023-09-19T06:00:30;100762.06;;;16.25;98.07
46303;BME280;32029;51.358;5.628;2023-09-19T06:02:58;100723.91;;;16.02;98.21
46303;BME280;32029;51.358;5.628;2023-09-19T06:05:26;100751.22;;;16.24;99.19
46303;BME280;32029;51.358;5.628;2023-09-19T06:07:54;100739.91;;;16.25;97.77
46303;BME280;32029;51.358;5.628;2023-09-19T06:10:20;100737.13;;;16.25;97.89
46303;BME280;32029;51.358;5.628;2023-09-19T06:12:49;100780.19;;;16.46;98.24
46303;BME280;32029;51.358;5.628;2023-09-19T06:15:16;100762.81;;;16.39;98.71
46303;BME280;32029;51.358;5.628;2023-09-19T06:17:49;100754.78;;;16.31;98.60
46303;BME280;32029;51.358;5.628;2023-09-19T06:20:16;100782.88;;;16.53;98.89
46303;BME280;32029;51.358;5.628;2023-09-19T06:22:44;100783.91;;;16.58;99.92
46303;BME280;32029;51.358;5.628;2023-09-19T06:25:13;100769.44;;;16.56;99.35
46303;BME280;32029;51.358;5.628;2023-09-19T06:27:46;100783.38;;;16.68;99.53
46303;BME280;32029;51.358;5.628;2023-09-19T06:30:13;100724.94;;;16.33;99.02
46303;BME280;32029;51.358;5.628;2023-09-19T06:32:44;100798.69;;;16.77;99.46
46303;BME280;32029;51.358;5.628;2023-09-19T06:35:14;100765.13;;;16.60;99.48
46303;BME280;32029;51.358;5.628;2023-09-19T06:37:42;100780.59;;;16.75;99.84
46303;BME280;32029;51.358;5.628;2023-09-19T06:40:11;100795.22;;;16.82;98.94
46303;BME280;32029;51.358;5.628;2023-09-19T06:45:08;100814.31;;;16.90;99.54
46303;BME280;32029;51.358;5.628;2023-09-19T06:47:38;100772.34;;;16.61;99.21
46303;BME280;32029;51.358;5.628;2023-09-19T06:50:05;100803.69;;;16.87;99.01
46303;BME280;32029;51.358;5.628;2023-09-19T06:52:33;100825.94;;;16.99;99.53
46303;BME280;32029;51.358;5.628;2023-09-19T06:55:00;100823.56;;;17.02;98.88
46303;BME280;32029;51.358;5.628;2023-09-19T06:57:26;100817.25;;;16.95;98.91
46303;BME280;32029;51.358;5.628;2023-09-19T06:59:53;100815.84;;;17.04;98.19
46303;BME280;32029;51.358;5.628;2023-09-19T07:02:20;100763.13;;;16.74;98.50
46303;BME280;32029;51.358;5.628;2023-09-19T07:04:48;100816.72;;;17.05;98.93
46303;BME280;32029;51.358;5.628;2023-09-19T07:07:16;100776.44;;;16.84;98.34
46303;BME280;32029;51.358;5.628;2023-09-19T07:09:42;100810.25;;;17.11;98.50
46303;BME280;32029;51.358;5.628;2023-09-19T07:12:09;100798.31;;;17.10;97.02
46303;BME280;32029;51.358;5.628;2023-09-19T07:14:36;100819.03;;;17.26;97.89
46303;BME280;32029;51.358;5.628;2023-09-19T07:17:03;100815.78;;;17.29;98.19
46303;BME280;32029;51.358;5.628;2023-09-19T07:19:30;100806.00;;;17.27;96.94
46303;BME280;32029;51.358;5.628;2023-09-19T07:21:57;100769.75;;;17.10;97.19
46303;BME280;32029;51.358;5.628;2023-09-19T07:24:25;100791.53;;;17.25;96.92
46303;BME280;32029;51.358;5.628;2023-09-19T07:26:55;100803.53;;;17.37;97.12
46303;BME280;32029;51.358;5.628;2023-09-19T07:29:22;100785.66;;;17.33;96.83
46303;BME280;32029;51.358;5.628;2023-09-19T07:31:48;100827.53;;;17.61;95.72
46303;BME280;32029;51.358;5.628;2023-09-19T07:34:16;100786.91;;;17.37;96.71
46303;BME280;32029;51.358;5.628;2023-09-19T07:36:43;100825.91;;;17.72;96.97
46303;BME280;32029;51.358;5.628;2023-09-19T07:39:10;100839.25;;;17.82;97.65
46303;BME280;32029;51.358;5.628;2023-09-19T07:41:37;100813.66;;;17.80;96.09
46303;BME280;32029;51.358;5.628;2023-09-19T07:44:04;100789.41;;;17.75;96.39
46303;BME280;32029;51.358;5.628;2023-09-19T07:46:31;100833.19;;;18.03;96.76
46303;BME280;32029;51.358;5.628;2023-09-19T07:48:58;100818.44;;;18.03;94.79
46303;BME280;32029;51.358;5.628;2023-09-19T07:51:24;100814.94;;;17.96;94.55
46303;BME280;32029;51.358;5.628;2023-09-19T07:53:51;100828.09;;;18.00;94.67
46303;BME280;32029;51.358;5.628;2023-09-19T07:56:19;100808.88;;;17.87;95.67
46303;BME280;32029;51.358;5.628;2023-09-19T07:58:47;100833.78;;;18.05;94.71
46303;BME280;32029;51.358;5.628;2023-09-19T08:01:13;100796.06;;;17.86;94.76
46303;BME280;32029;51.358;5.628;2023-09-19T08:03:42;100811.41;;;17.88;95.43
46303;BME280;32029;51.358;5.628;2023-09-19T08:06:10;100838.41;;;18.11;94.44
46303;BME280;32029;51.358;5.628;2023-09-19T08:08:37;100829.44;;;18.09;95.06
46303;BME280;32029;51.358;5.628;2023-09-19T08:11:05;100830.66;;;18.13;94.47
46303;BME280;32029;51.358;5.628;2023-09-19T08:13:38;100779.78;;;17.90;93.52
46303;BME280;32029;51.358;5.628;2023-09-19T08:16:10;100814.13;;;18.07;94.53
46303;BME280;32029;51.358;5.628;2023-09-19T08:18:37;100824.66;;;18.28;94.83
46303;BME280;32029;51.358;5.628;2023-09-19T08:21:06;100823.47;;;18.36;95.00
46303;BME280;32029;51.358;5.628;2023-09-19T08:23:37;100817.91;;;18.36;94.28
46303;BME280;32029;51.358;5.628;2023-09-19T08:26:05;100818.66;;;18.43;94.18
46303;BME280;32029;51.358;5.628;2023-09-19T08:28:35;100807.53;;;18.43;93.16
46303;BME280;32029;51.358;5.628;2023-09-19T08:31:03;100822.19;;;18.50;93.51
46303;BME280;32029;51.358;5.628;2023-09-19T08:33:36;100822.06;;;18.57;94.88
46303;BME280;32029;51.358;5.628;2023-09-19T08:36:04;100839.13;;;18.72;93.15
46303;BME280;32029;51.358;5.628;2023-09-19T08:38:31;100829.72;;;18.73;93.02
46303;BME280;32029;51.358;5.628;2023-09-19T08:41:00;100813.59;;;18.64;91.95
46303;BME280;32029;51.358;5.628;2023-09-19T08:43:27;100837.31;;;18.78;92.90
46303;BME280;32029;51.358;5.628;2023-09-19T08:46:11;100830.81;;;18.84;92.22
46303;BME280;32029;51.358;5.628;2023-09-19T08:48:45;100820.66;;;18.78;92.27
46303;BME280;32029;51.358;5.628;2023-09-19T08:51:25;100815.69;;;18.80;91.69
46303;BME280;32029;51.358;5.628;2023-09-19T08:56:32;100836.84;;;19.04;91.70
46303;BME280;32029;51.358;5.628;2023-09-19T08:59:03;100818.69;;;19.14;91.63
46303;BME280;32029;51.358;5.628;2023-09-19T09:01:31;100800.91;;;19.03;91.63
46303;BME280;32029;51.358;5.628;2023-09-19T09:03:59;100806.72;;;19.13;90.82
46303;BME280;32029;51.358;5.628;2023-09-19T09:06:26;100809.00;;;19.16;91.18
46303;BME280;32029;51.358;5.628;2023-09-19T09:08:55;100806.97;;;19.12;90.31
46303;BME280;32029;51.358;5.628;2023-09-19T09:11:22;100840.06;;;19.25;90.23
46303;BME280;32029;51.358;5.628;2023-09-19T09:13:51;100830.75;;;19.31;88.96
46303;BME280;32029;51.358;5.628;2023-09-19T09:16:17;100810.09;;;19.15;90.10
46303;BME280;32029;51.358;5.628;2023-09-19T09:18:46;100832.81;;;19.36;91.70
46303;BME280;32029;51.358;5.628;2023-09-19T09:21:13;100805.81;;;19.36;89.51
46303;BME280;32029;51.358;5.628;2023-09-19T09:23:41;100821.88;;;19.46;90.63
46303;BME280;32029;51.358;5.628;2023-09-19T09:26:07;100830.72;;;19.54;89.38
46303;BME280;32029;51.358;5.628;2023-09-19T09:28:35;100825.97;;;19.55;87.90
46303;BME280;32029;51.358;5.628;2023-09-19T09:31:05;100818.88;;;19.47;89.07
46303;BME280;32029;51.358;5.628;2023-09-19T09:33:36;100830.44;;;19.56;89.53
46303;BME280;32029;51.358;5.628;2023-09-19T09:36:03;100751.84;;;19.08;90.47
46303;BME280;32029;51.358;5.628;2023-09-19T09:38:45;100829.69;;;19.61;88.77
46303;BME280;32029;51.358;5.628;2023-09-19T09:41:13;100835.53;;;19.71;87.57
46303;BME280;32029;51.358;5.628;2023-09-19T09:43:53;100831.16;;;19.75;88.72
46303;BME280;32029;51.358;5.628;2023-09-19T09:46:21;100825.09;;;19.78;86.30
46303;BME280;32029;51.358;5.628;2023-09-19T09:49:01;100839.31;;;19.93;86.43
46303;BME280;32029;51.358;5.628;2023-09-19T09:51:51;100808.34;;;19.90;88.76
46303;BME280;32029;51.358;5.628;2023-09-19T09:54:28;100839.56;;;20.08;88.91
46303;BME280;32029;51.358;5.628;2023-09-19T09:57:04;100837.75;;;20.14;85.87
46303;BME280;32029;51.358;5.628;2023-09-19T09:59:47;100831.91;;;20.16;86.13
46303;BME280;32029;51.358;5.628;2023-09-19T10:02:14;100833.69;;;20.22;86.06
46303;BME280;32029;51.358;5.628;2023-09-19T10:04:46;100804.53;;;20.13;87.33
46303;BME280;32029;51.358;5.628;2023-09-19T10:07:30;100824.16;;;20.35;86.51
46303;BME280;32029;51.358;5.628;2023-09-19T10:10:05;100806.13;;;20.37;84.24
46303;BME280;32029;51.358;5.628;2023-09-19T10:12:44;100817.94;;;20.44;84.55
46303;BME280;32029;51.358;5.628;2023-09-19T10:15:12;100798.00;;;20.36;83.91
46303;BME280;32029;51.358;5.628;2023-09-19T10:17:45;100769.28;;;20.18;84.08
46303;BME280;32029;51.358;5.628;2023-09-19T10:20:14;100819.13;;;20.48;84.63
46303;BME280;32029;51.358;5.628;2023-09-19T10:23:09;100813.38;;;20.55;82.28
46303;BME280;32029;51.358;5.628;2023-09-19T10:25:42;100782.09;;;20.36;82.38
46303;BME280;32029;51.358;5.628;2023-09-19T10:28:12;100795.47;;;20.34;82.25
46303;BME280;32029;51.358;5.628;2023-09-19T10:30:44;100817.00;;;20.39;80.49
46303;BME280;32029;51.358;5.628;2023-09-19T10:33:14;100801.88;;;20.18;81.66
46303;BME280;32029;51.358;5.628;2023-09-19T10:35:46;100803.63;;;20.24;83.76
46303;BME280;32029;51.358;5.628;2023-09-19T10:38:17;100778.56;;;20.07;81.57
46303;BME280;32029;51.358;5.628;2023-09-19T10:40:53;100806.41;;;20.24;83.32
46303;BME280;32029;51.358;5.628;2023-09-19T10:43:22;100790.53;;;20.24;82.22
46303;BME280;32029;51.358;5.628;2023-09-19T10:45:51;100778.75;;;20.17;83.54
46303;BME280;32029;51.358;5.628;2023-09-19T10:48:20;100808.97;;;20.42;83.61
46303;BME280;32029;51.358;5.628;2023-09-19T10:51:15;100799.50;;;20.43;81.07
46303;BME280;32029;51.358;5.628;2023-09-19T10:53:48;100820.69;;;20.56;81.09
46303;BME280;32029;51.358;5.628;2023-09-19T10:56:27;100811.53;;;20.61;80.34
46303;BME280;32029;51.358;5.628;2023-09-19T10:59:10;100795.94;;;20.60;78.63
46303;BME280;32029;51.358;5.628;2023-09-19T11:04:29;100806.56;;;20.79;79.29
46303;BME280;32029;51.358;5.628;2023-09-19T11:07:14;100768.78;;;20.72;79.87
46303;BME280;32029;51.358;5.628;2023-09-19T11:09:51;100789.00;;;21.01;80.06
46303;BME280;32029;51.358;5.628;2023-09-19T11:15:08;100800.19;;;21.23;78.66
46303;BME280;32029;51.358;5.628;2023-09-19T11:17:38;100787.47;;;21.32;77.53
46303;BME280;32029;51.358;5.628;2023-09-19T11:30:46;100756.97;;;21.47;76.35
46303;BME280;32029;51.358;5.628;2023-09-19T11:36:06;100767.22;;;21.64;73.75
46303;BME280;32029;51.358;5.628;2023-09-19T11:46:30;100753.38;;;21.74;75.09
46303;BME280;32029;51.358;5.628;2023-09-19T11:49:06;100758.97;;;21.74;73.39
46303;BME280;32029;51.358;5.628;2023-09-19T11:51:40;100734.06;;;21.72;73.17
46303;BME280;32029;51.358;5.628;2023-09-19T11:54:11;100735.00;;;21.78;72.47
46303;BME280;32029;51.358;5.628;2023-09-19T11:56:59;100744.22;;;21.78;74.65
46303;BME280;32029;51.358;5.628;2023-09-19T11:59:30;100725.53;;;21.84;72.29
46303;BME280;32029;51.358;5.628;2023-09-19T12:02:04;100728.91;;;21.86;73.47
46303;BME280;32029;51.358;5.628;2023-09-19T12:04:40;100733.53;;;22.02;73.63
46303;BME280;32029;51.358;5.628;2023-09-19T12:07:12;100713.47;;;22.06;72.97
46303;BME280;32029;51.358;5.628;2023-09-19T12:09:43;100722.03;;;22.26;71.78
46303;BME280;32029;51.358;5.628;2023-09-19T12:12:28;100716.97;;;22.23;72.13
46303;BME280;32029;51.358;5.628;2023-09-19T12:14:59;100708.50;;;22.13;71.02
46303;BME280;32029;51.358;5.628;2023-09-19T12:17:46;100730.19;;;22.33;72.21
46303;BME280;32029;51.358;5.628;2023-09-19T12:20:13;100725.53;;;22.43;73.10
46303;BME280;32029;51.358;5.628;2023-09-19T12:22:42;100730.63;;;22.52;73.62
46303;BME280;32029;51.358;5.628;2023-09-19T12:25:13;100709.09;;;22.52;71.88
46303;BME280;32029;51.358;5.628;2023-09-19T12:27:49;100688.06;;;22.44;70.91
46303;BME280;32029;51.358;5.628;2023-09-19T12:30:19;100693.69;;;22.49;70.44
46303;BME280;32029;51.358;5.628;2023-09-19T12:32:51;100700.41;;;22.54;71.37
46303;BME280;32029;51.358;5.628;2023-09-19T12:35:32;100731.88;;;22.76;72.06
46303;BME280;32029;51.358;5.628;2023-09-19T12:38:02;100711.19;;;22.77;72.00
46303;BME280;32029;51.358;5.628;2023-09-19T12:40:30;100689.31;;;22.64;71.09
46303;BME280;32029;51.358;5.628;2023-09-19T12:43:01;100707.00;;;22.74;70.57
46303;BME280;32029;51.358;5.628;2023-09-19T12:45:31;100717.38;;;22.84;70.53
46303;BME280;32029;51.358;5.628;2023-09-19T12:48:20;100728.94;;;22.93;70.55
46303;BME280;32029;51.358;5.628;2023-09-19T12:51:10;100746.59;;;22.98;71.26
46303;BME280;32029;51.358;5.628;2023-09-19T12:53:43;100741.00;;;22.98;70.52
46303;BME280;32029;51.358;5.628;2023-09-19T12:56:16;100731.50;;;22.99;70.28
46303;BME280;32029;51.358;5.628;2023-09-19T12:58:55;100720.84;;;22.96;70.58
46303;BME280;32029;51.358;5.628;2023-09-19T13:01:23;100739.38;;;23.13;70.53
46303;BME280;32029;51.358;5.628;2023-09-19T13:06:55;100731.03;;;23.28;70.89
46303;BME280;32029;51.358;5.628;2023-09-19T13:09:27;100725.47;;;23.33;69.78
46303;BME280;32029;51.358;5.628;2023-09-19T13:12:37;100726.88;;;23.36;69.11
46303;BME280;32029;51.358;5.628;2023-09-19T13:15:11;100736.69;;;23.33;68.47
46303;BME280;32029;51.358;5.628;2023-09-19T13:17:44;100692.31;;;22.99;69.00
46303;BME280;32029;51.358;5.628;2023-09-19T13:20:25;100731.38;;;23.37;70.02
46303;BME280;32029;51.358;5.628;2023-09-19T13:22:54;100722.09;;;23.36;68.13
46303;BME280;32029;51.358;5.628;2023-09-19T13:25:25;100704.16;;;23.27;69.50
46303;BME280;32029;51.358;5.628;2023-09-19T13:27:54;100711.47;;;23.33;70.00
46303;BME280;32029;51.358;5.628;2023-09-19T13:30:28;100742.03;;;23.45;69.58
46303;BME280;32029;51.358;5.628;2023-09-19T13:33:24;100747.94;;;23.48;69.43
46303;BME280;32029;51.358;5.628;2023-09-19T13:35:52;100717.94;;;23.39;69.62
46303;BME280;32029;51.358;5.628;2023-09-19T13:38:19;100717.94;;;23.44;70.65
46303;BME280;32029;51.358;5.628;2023-09-19T13:40:49;100754.69;;;23.63;69.59
46303;BME280;32029;51.358;5.628;2023-09-19T13:43:16;100743.19;;;23.54;68.82
46303;BME280;32029;51.358;5.628;2023-09-19T13:45:43;100742.28;;;23.43;69.66
46303;BME280;32029;51.358;5.628;2023-09-19T13:48:10;100731.63;;;23.25;69.04